Dillon, Canada
Current Conditions -  °F | °C
As of 8:00 PM on Friday 24 Oct 2014 (Local Time) from CYVT Reporting Station
Broken Clouds Broken Clouds  
Wind Chill: 28°   Ceiling: 22000
Heat Index: 37°   Visibility: 15mi
Dew Point: 28°   Wind: 17mph
Humidity: 70%   Direction: 300°WNW
Pressure: 29.76"   Gusts: 23mph
Location:  55.93°N, 108.94°W
Report Text: CYVT 250200Z 30015G20KT 15SM SCT016 SCT080 BKN220 03/M02 A2976 RMK SC3AC1CI1 SLP097
Loading
Personal Weather Stations






























Interactive Weather Map
Tropical Storm Tracking
New forecast layout! Learn more

10-Day Weather Forecast

Advertisements
Track Severe Weather on mobile